Main page
METAR-TAF:

Airports :

Waddington, England

RAF Waddington

latitude: 53-10N, longitude: 000-31W, elevation: 68 m

Current weather observation

The report was made 34 minutes ago, at 21:50 UTC
Wind 12 kt from the West/Southwest
Temperature 4°C
Humidity 81%
Pressure 984 hPa
Visibility 10 km or more
Broken clouds at a height of 2700 ft

METAR: EGXW 092150Z 25012KT 9999 BKN027 04/01 Q0984 BLU

Time: 22:24 (22:24 UTC)

Forecast

The report was made 5 hours and 56 minutes ago, at 16:28 UTC
Forecast valid from 09 at 18 UTC to 09 at 21 UTC
Wind 12 kt from the West/Southwest
Visibility 10 km or more
Broken clouds at a height of 4000 ft
Probability 30%
from 09 at 19 UTC to 09 at 21 UTC
Broken clouds at a height of 1500 ft

TAF: EGXW 091628Z 0918/0921 25012KT 9999 BKN040 PROB30 0919/0921 BKN015

METAR-TAF

Weather observations and forecasts of more than 4000 airports (METAR and TAF reports).

The available stations are represented by yellow and red dots on the map.

Hover mouse over dot to see the name of the station.

Then click to see weather observations and forecasts.

To change the map : click on the green buttons with a black cross to zoom in, on the green button with a dash to zoom out, or on the green arrows for adjacent maps.


METAR-TAF: